Time;durP1;ratioP1;P1;durP2;ratioP2;P2;SDS_P1;SDS_P2;PMS_P1;PMS_P2;Temp;Humidity;BMP_temperature;BMP_pressure;BME280_temperature;BME280_humidity;BME280_pressure;Samples;Min_cycle;Max_cycle;Signal;HPM_P1;HPM_P2
2022/04/09 00:01:26;;;;;;;1.00;0.80;;;1.40;99.90;;;;;;5035733;28;20243;-75
2022/04/09 00:03:52;;;;;;;2.35;1.10;;;1.50;99.90;;;;;;5030480;28;20181;-77
2022/04/09 00:06:18;;;;;;;0.80;0.70;;;1.60;99.90;;;;;;5039291;28;20266;-76
2022/04/09 00:08:43;;;;;;;1.23;0.80;;;1.60;99.90;;;;;;5034726;28;20212;-76
2022/04/09 00:11:10;;;;;;;1.53;1.27;;;1.60;99.90;;;;;;5035210;28;20212;-75
2022/04/09 00:13:36;;;;;;;1.33;1.00;;;1.60;99.80;;;;;;5036453;28;20188;-76
2022/04/09 00:16:02;;;;;;;2.75;1.05;;;1.70;99.80;;;;;;5032274;28;20208;-76
2022/04/09 00:18:28;;;;;;;4.78;1.45;;;1.80;99.60;;;;;;5029742;28;20671;-77
2022/04/09 00:20:55;;;;;;;1.20;0.80;;;1.80;99.60;;;;;;5039067;28;20188;-75
2022/04/09 00:23:23;;;;;;;1.42;1.00;;;1.80;99.40;;;;;;5032741;28;20185;-76
2022/04/09 00:25:49;;;;;;;2.72;1.40;;;1.90;99.30;;;;;;5040268;28;20200;-76
2022/04/09 00:28:15;;;;;;;2.00;1.30;;;1.90;99.30;;;;;;5032794;28;20213;-75
2022/04/09 00:30:41;;;;;;;3.47;2.23;;;1.90;98.80;;;;;;5031099;28;20873;-75
2022/04/09 00:33:07;;;;;;;2.30;1.60;;;1.90;98.80;;;;;;5035196;28;20272;-75
2022/04/09 00:35:34;;;;;;;1.60;1.30;;;1.90;98.80;;;;;;5031464;28;21032;-77
2022/04/09 00:37:59;;;;;;;1.73;1.40;;;2.00;98.70;;;;;;5035784;28;20200;-75
2022/04/09 00:40:26;;;;;;;1.60;1.20;;;2.00;98.60;;;;;;5031341;28;20652;-77
2022/04/09 00:42:52;;;;;;;0.82;0.80;;;2.00;98.60;;;;;;5036749;28;20619;-76
2022/04/09 00:45:18;;;;;;;1.42;1.10;;;2.10;98.60;;;;;;5031427;28;20659;-76
2022/04/09 00:47:44;;;;;;;2.10;1.27;;;2.10;98.60;;;;;;5031462;28;20212;-76
2022/04/09 00:50:11;;;;;;;1.25;1.10;;;2.10;98.50;;;;;;5044408;28;20307;-75
2022/04/09 00:52:45;;;;;;;2.30;1.30;;;2.10;98.40;;;;;;5035848;28;20756;-76
2022/04/09 00:55:12;;;;;;;3.70;1.75;;;2.00;98.40;;;;;;5037554;28;20219;-77
2022/04/09 00:57:42;;;;;;;1.85;1.13;;;2.10;98.40;;;;;;5033633;28;20193;-75
2022/04/09 01:00:09;;;;;;;2.30;1.50;;;2.10;98.20;;;;;;5036600;28;20180;-77
2022/04/09 01:02:43;;;;;;;2.42;1.60;;;2.00;98.00;;;;;;5032679;28;20899;-76
2022/04/09 01:05:09;;;;;;;2.20;1.38;;;2.10;98.10;;;;;;5043448;28;20203;-77
2022/04/09 01:07:35;;;;;;;1.30;1.20;;;2.20;98.10;;;;;;5033759;28;20647;-77
2022/04/09 01:10:03;;;;;;;4.13;1.60;;;2.10;97.80;;;;;;5033536;28;20199;-77
2022/04/09 01:12:29;;;;;;;2.38;1.40;;;2.20;97.90;;;;;;5037581;28;20204;-77
2022/04/09 01:14:55;;;;;;;4.00;1.90;;;2.20;97.80;;;;;;5039646;28;20296;-76
2022/04/09 01:17:21;;;;;;;2.13;1.77;;;2.20;97.80;;;;;;5039880;28;20213;-76
2022/04/09 01:19:46;;;;;;;1.90;1.60;;;2.20;97.80;;;;;;5034228;28;20181;-77
2022/04/09 01:22:12;;;;;;;2.40;1.70;;;2.20;97.70;;;;;;5039224;28;20192;-77
2022/04/09 01:24:38;;;;;;;2.60;1.93;;;2.20;97.60;;;;;;5031014;28;20853;-76
2022/04/09 01:27:04;;;;;;;2.87;1.50;;;2.20;97.50;;;;;;5033390;28;20264;-76
2022/04/09 01:29:30;;;;;;;2.10;1.80;;;2.20;97.60;;;;;;5037386;28;20185;-77
2022/04/09 01:31:56;;;;;;;5.00;2.50;;;2.20;97.50;;;;;;5032363;28;20434;-78
2022/04/09 01:34:22;;;;;;;3.60;2.27;;;2.20;97.50;;;;;;5030076;28;20528;-76
2022/04/09 01:36:48;;;;;;;5.30;2.80;;;2.20;97.50;;;;;;5034439;28;20228;-77
2022/04/09 01:39:17;;;;;;;5.77;3.30;;;2.20;97.60;;;;;;5033516;28;20428;-76
2022/04/09 01:41:44;;;;;;;5.37;2.67;;;2.40;97.50;;;;;;5030942;28;20226;-76
2022/04/09 01:44:10;;;;;;;3.60;2.40;;;2.40;97.60;;;;;;5031078;28;20420;-76
2022/04/09 01:46:37;;;;;;;4.00;2.33;;;2.40;97.50;;;;;;5031010;28;20463;-77
2022/04/09 01:49:04;;;;;;;6.60;3.13;;;2.50;97.60;;;;;;5031322;28;20483;-77
2022/04/09 01:51:29;;;;;;;5.47;2.67;;;2.60;97.40;;;;;;5029664;28;20428;-76
2022/04/09 01:53:55;;;;;;;4.87;2.73;;;2.50;97.20;;;;;;5034014;28;20515;-77
2022/04/09 01:56:21;;;;;;;4.50;2.80;;;2.50;97.10;;;;;;5043603;28;20219;-77
2022/04/09 01:58:47;;;;;;;5.70;3.43;;;2.60;97.00;;;;;;5033026;28;20177;-76
2022/04/09 02:01:17;;;;;;;8.03;3.40;;;2.50;96.90;;;;;;5036122;28;20184;-76
2022/04/09 02:03:43;;;;;;;6.63;3.60;;;2.60;96.80;;;;;;5032925;28;20227;-77
2022/04/09 02:06:08;;;;;;;7.10;3.20;;;2.60;96.80;;;;;;5041638;28;20620;-78
2022/04/09 02:08:34;;;;;;;5.50;3.60;;;2.70;96.70;;;;;;5032569;28;20181;-77
2022/04/09 02:11:00;;;;;;;4.30;3.47;;;2.80;96.60;;;;;;5037263;28;20185;-76
2022/04/09 02:13:26;;;;;;;5.93;3.10;;;2.80;96.60;;;;;;5042165;28;20189;-77
2022/04/09 02:15:51;;;;;;;5.70;3.33;;;2.70;96.50;;;;;;5033457;28;20586;-79
2022/04/09 02:18:17;;;;;;;9.00;3.43;;;2.70;96.50;;;;;;5033782;28;20571;-77
2022/04/09 02:20:43;;;;;;;5.63;3.10;;;2.70;96.40;;;;;;5033617;28;20177;-77
2022/04/09 02:23:08;;;;;;;4.63;2.90;;;2.70;96.50;;;;;;5034193;28;20215;-76
2022/04/09 02:25:34;;;;;;;5.90;2.77;;;2.80;96.70;;;;;;5035709;28;20211;-76
2022/04/09 02:28:00;;;;;;;5.57;3.07;;;2.80;96.70;;;;;;5037720;28;20177;-77
2022/04/09 02:30:25;;;;;;;5.20;2.80;;;2.80;96.60;;;;;;5032344;28;20196;-78
2022/04/09 02:32:53;;;;;;;4.60;3.07;;;2.90;96.60;;;;;;5033525;28;20185;-76
2022/04/09 02:35:19;;;;;;;5.88;3.10;;;2.90;96.50;;;;;;5033939;28;20212;-76
2022/04/09 02:37:45;;;;;;;5.73;3.40;;;2.80;96.40;;;;;;5031620;28;20223;-77
2022/04/09 02:40:12;;;;;;;9.53;3.50;;;2.80;96.50;;;;;;5039969;28;21259;-77
2022/04/09 02:42:39;;;;;;;4.78;3.03;;;2.70;96.50;;;;;;5038942;28;20600;-76
2022/04/09 02:45:05;;;;;;;8.48;4.20;;;2.80;96.70;;;;;;5032734;28;20228;-76
2022/04/09 02:47:32;;;;;;;7.13;3.80;;;2.80;96.80;;;;;;5034311;28;20592;-76
2022/04/09 02:50:03;;;;;;;7.10;4.13;;;2.80;96.90;;;;;;5034089;28;20497;-77
2022/04/09 02:52:36;;;;;;;7.30;4.00;;;2.80;97.00;;;;;;5034454;28;20177;-77
2022/04/09 02:55:03;;;;;;;7.35;3.80;;;2.80;96.80;;;;;;5041052;28;20494;-75
2022/04/09 02:57:29;;;;;;;6.05;3.70;;;2.80;96.80;;;;;;5038795;28;20212;-77
2022/04/09 02:59:55;;;;;;;6.00;3.73;;;2.70;96.80;;;;;;5044841;28;20172;-76
2022/04/09 03:02:21;;;;;;;6.03;3.67;;;2.80;96.80;;;;;;5039427;28;20185;-76
2022/04/09 03:04:46;;;;;;;6.57;4.07;;;2.80;96.80;;;;;;5043777;28;20450;-76
2022/04/09 03:07:12;;;;;;;5.33;3.40;;;2.70;96.60;;;;;;5043367;28;20537;-77
2022/04/09 03:09:38;;;;;;;4.10;3.10;;;2.80;96.70;;;;;;5048028;28;20416;-76
2022/04/09 03:12:04;;;;;;;10.83;3.20;;;2.80;96.70;;;;;;5038159;28;20788;-75
2022/04/09 03:14:30;;;;;;;3.50;2.50;;;2.90;96.80;;;;;;5035062;28;20209;-77
2022/04/09 03:16:56;;;;;;;5.10;3.20;;;2.90;96.70;;;;;;5034978;28;20642;-77
2022/04/09 03:19:22;;;;;;;5.40;3.07;;;2.80;96.50;;;;;;5038620;28;20833;-77
2022/04/09 03:21:48;;;;;;;4.83;3.27;;;2.80;96.40;;;;;;5043973;28;20432;-77
2022/04/09 03:24:14;;;;;;;4.77;2.90;;;2.80;96.40;;;;;;5035129;28;20440;-75
2022/04/09 03:26:40;;;;;;;4.63;2.90;;;2.80;96.40;;;;;;5043091;28;20185;-75
2022/04/09 03:29:05;;;;;;;5.13;2.93;;;2.80;96.30;;;;;;5040546;28;20415;-77
2022/04/09 03:31:31;;;;;;;5.17;3.33;;;2.80;96.30;;;;;;5034306;28;20411;-76
2022/04/09 03:33:57;;;;;;;4.83;3.03;;;2.70;96.20;;;;;;5034075;28;20174;-78
2022/04/09 03:36:23;;;;;;;5.77;3.50;;;2.80;96.40;;;;;;5032681;28;20215;-77
2022/04/09 03:38:49;;;;;;;6.43;3.90;;;2.90;96.30;;;;;;5037132;28;20420;-76
2022/04/09 03:41:14;;;;;;;6.57;4.03;;;2.90;96.10;;;;;;5035810;28;20180;-76
2022/04/09 03:43:40;;;;;;;7.80;4.30;;;3.00;96.20;;;;;;5033768;28;20228;-76
2022/04/09 03:46:06;;;;;;;7.57;4.60;;;3.00;96.00;;;;;;5032292;28;20211;-76
2022/04/09 03:48:32;;;;;;;11.03;5.10;;;3.00;95.80;;;;;;5032907;28;20428;-77
2022/04/09 03:50:58;;;;;;;9.90;5.53;;;3.10;95.80;;;;;;5037390;28;20220;-75
2022/04/09 03:53:23;;;;;;;13.00;6.20;;;3.00;95.70;;;;;;5032120;28;20379;-75
2022/04/09 03:55:49;;;;;;;12.80;5.83;;;3.10;95.80;;;;;;5034981;28;20209;-77
2022/04/09 03:58:16;;;;;;;10.57;5.47;;;3.10;95.80;;;;;;5031031;28;20647;-76
2022/04/09 04:00:42;;;;;;;14.35;7.70;;;3.10;95.70;;;;;;5033547;28;20768;-77
2022/04/09 04:03:09;;;;;;;12.43;6.53;;;3.10;95.70;;;;;;5034620;28;20937;-77
2022/04/09 04:05:36;;;;;;;17.80;8.30;;;3.10;95.60;;;;;;5039831;28;20864;-78
2022/04/09 04:08:06;;;;;;;15.17;7.43;;;3.20;95.40;;;;;;5033491;28;20482;-76
2022/04/09 04:10:35;;;;;;;17.57;7.80;;;3.30;95.40;;;;;;5024589;28;20911;-77
2022/04/09 04:13:02;;;;;;;17.03;8.63;;;3.30;95.10;;;;;;5038387;28;20922;-75
2022/04/09 04:15:27;;;;;;;13.52;8.00;;;3.40;94.90;;;;;;5033288;28;20997;-76
2022/04/09 04:17:53;;;;;;;18.67;8.77;;;3.30;94.80;;;;;;5031502;28;20188;-76
2022/04/09 04:20:19;;;;;;;19.00;8.73;;;3.40;94.40;;;;;;5033015;28;20185;-75
2022/04/09 04:22:45;;;;;;;16.70;8.67;;;3.30;94.20;;;;;;5030079;28;20929;-75
2022/04/09 04:25:11;;;;;;;22.77;9.17;;;3.30;94.10;;;;;;5030711;28;20200;-76
2022/04/09 04:27:46;;;;;;;16.90;8.20;;;3.30;93.90;;;;;;5032059;28;20315;-77
2022/04/09 04:30:13;;;;;;;18.50;9.30;;;3.20;93.90;;;;;;5031240;28;20218;-76
2022/04/09 04:32:40;;;;;;;19.50;8.13;;;3.10;93.80;;;;;;5029868;28;20432;-77
2022/04/09 04:35:06;;;;;;;23.37;10.53;;;3.20;93.90;;;;;;5031920;28;20475;-76
2022/04/09 04:37:38;;;;;;;16.80;9.70;;;3.20;94.00;;;;;;5034985;28;20424;-76
2022/04/09 04:40:05;;;;;;;20.03;9.13;;;3.20;93.70;;;;;;5040817;28;20920;-76
2022/04/09 04:42:30;;;;;;;16.40;8.67;;;3.20;93.60;;;;;;5036908;28;20428;-75
2022/04/09 04:44:56;;;;;;;22.93;9.20;;;3.20;93.60;;;;;;5031383;28;20448;-75
2022/04/09 04:47:22;;;;;;;22.10;9.90;;;3.10;93.70;;;;;;5031736;28;20189;-76
2022/04/09 04:49:47;;;;;;;20.07;8.97;;;3.10;93.60;;;;;;5033563;28;20215;-76
2022/04/09 04:52:13;;;;;;;21.23;9.60;;;3.10;93.70;;;;;;5033354;28;20272;-75
2022/04/09 04:54:39;;;;;;;17.90;8.53;;;3.10;94.00;;;;;;5035878;28;20599;-75
2022/04/09 04:57:05;;;;;;;17.77;8.47;;;3.00;94.10;;;;;;5032911;28;20208;-76
2022/04/09 04:59:30;;;;;;;24.27;9.40;;;3.10;94.20;;;;;;5034199;28;20185;-76
2022/04/09 05:01:56;;;;;;;19.73;9.67;;;3.00;94.30;;;;;;5031543;28;20703;-76
2022/04/09 05:04:22;;;;;;;21.43;9.60;;;3.00;94.40;;;;;;5031795;28;20670;-75
2022/04/09 05:06:49;;;;;;;18.13;9.17;;;2.90;94.40;;;;;;5034305;28;20185;-76
2022/04/09 05:09:15;;;;;;;20.40;9.77;;;2.90;94.40;;;;;;5044345;28;20181;-76
2022/04/09 05:11:40;;;;;;;21.00;9.57;;;2.90;94.50;;;;;;5041585;28;20180;-76
2022/04/09 05:14:06;;;;;;;17.80;9.67;;;3.00;94.50;;;;;;5042095;28;20627;-77
2022/04/09 05:16:32;;;;;;;18.40;10.00;;;3.00;94.60;;;;;;5038713;28;20207;-77
2022/04/09 05:18:58;;;;;;;21.40;9.97;;;3.00;94.60;;;;;;5041576;28;20256;-74
2022/04/09 05:21:25;;;;;;;19.57;8.00;;;3.00;94.50;;;;;;5035258;28;20264;-76
2022/04/09 05:23:50;;;;;;;17.20;9.03;;;3.00;94.60;;;;;;5036719;28;20235;-76
2022/04/09 05:26:16;;;;;;;19.97;9.37;;;3.00;94.40;;;;;;5035085;28;20517;-75
2022/04/09 05:28:42;;;;;;;19.23;10.00;;;3.00;94.10;;;;;;5039636;28;20254;-77
2022/04/09 05:31:09;;;;;;;19.53;9.27;;;3.00;94.20;;;;;;5038973;28;20177;-76
2022/04/09 05:33:35;;;;;;;20.33;8.70;;;3.10;94.00;;;;;;5034780;28;20660;-77
2022/04/09 05:36:02;;;;;;;19.83;8.90;;;3.10;94.10;;;;;;5041838;28;20491;-74
2022/04/09 05:38:28;;;;;;;18.43;9.03;;;3.10;94.10;;;;;;5041418;28;20227;-75
2022/04/09 05:40:54;;;;;;;14.83;8.80;;;3.00;94.10;;;;;;5036336;28;20412;-75
2022/04/09 05:43:19;;;;;;;16.03;8.10;;;3.00;93.90;;;;;;5047421;28;20185;-75
2022/04/09 05:45:45;;;;;;;17.37;8.63;;;3.00;93.60;;;;;;5039558;28;20676;-74
2022/04/09 05:48:11;;;;;;;14.07;8.13;;;3.10;93.60;;;;;;5047021;28;20210;-75
2022/04/09 05:50:36;;;;;;;19.00;8.80;;;3.10;93.40;;;;;;5045164;28;20896;-74
2022/04/09 05:53:02;;;;;;;16.63;9.23;;;3.10;93.50;;;;;;5042657;28;20189;-75
2022/04/09 05:55:28;;;;;;;19.10;8.80;;;3.20;93.50;;;;;;5043072;28;20213;-75
2022/04/09 05:57:54;;;;;;;20.90;8.73;;;3.30;93.50;;;;;;5044302;28;20181;-76
2022/04/09 06:00:20;;;;;;;15.63;8.50;;;3.30;93.30;;;;;;5048433;28;20185;-76
2022/04/09 06:02:46;;;;;;;20.00;8.93;;;3.20;93.10;;;;;;5042807;28;20504;-76
2022/04/09 06:05:12;;;;;;;15.07;7.50;;;3.20;93.10;;;;;;5050564;28;20489;-76
2022/04/09 06:07:37;;;;;;;17.00;8.10;;;3.30;92.60;;;;;;5048371;28;20197;-75
2022/04/09 06:10:06;;;;;;;16.10;8.20;;;3.30;92.50;;;;;;5042022;28;20419;-77
2022/04/09 06:12:34;;;;;;;15.50;8.00;;;3.30;92.40;;;;;;5036888;28;20181;-76
2022/04/09 06:15:02;;;;;;;17.53;8.90;;;3.30;92.50;;;;;;5038572;28;20483;-75
2022/04/09 06:17:28;;;;;;;16.37;8.03;;;3.30;92.60;;;;;;5048029;28;20849;-76
2022/04/09 06:19:54;;;;;;;14.67;8.30;;;3.30;92.50;;;;;;5035515;28;20519;-76
2022/04/09 06:22:20;;;;;;;15.03;7.67;;;3.30;92.60;;;;;;5036253;28;20184;-76
2022/04/09 06:24:46;;;;;;;11.37;6.80;;;3.30;92.20;;;;;;5036343;28;20606;-75
2022/04/09 06:27:12;;;;;;;12.40;6.60;;;3.30;92.20;;;;;;5035231;28;20601;-77
2022/04/09 06:29:38;;;;;;;17.93;8.20;;;3.30;92.10;;;;;;5034371;28;20189;-77
2022/04/09 06:32:04;;;;;;;16.77;7.63;;;3.30;92.20;;;;;;5040315;28;20200;-76
2022/04/09 06:34:30;;;;;;;20.30;7.03;;;3.40;92.30;;;;;;5053256;28;20300;-76
2022/04/09 06:36:56;;;;;;;20.47;7.83;;;3.30;92.30;;;;;;5035367;28;20463;-76
2022/04/09 06:39:23;;;;;;;16.13;7.30;;;3.30;92.40;;;;;;5034513;28;20711;-74
2022/04/09 06:41:52;;;;;;;14.13;7.33;;;3.40;92.10;;;;;;5034593;28;20177;-77
2022/04/09 06:44:18;;;;;;;13.75;7.45;;;3.40;92.00;;;;;;5035410;28;20446;-75
2022/04/09 06:46:45;;;;;;;11.17;6.50;;;3.40;91.80;;;;;;5037744;28;20178;-75
2022/04/09 06:49:12;;;;;;;15.93;7.33;;;3.50;91.80;;;;;;5049257;28;20469;-76
2022/04/09 06:51:39;;;;;;;14.30;6.67;;;3.60;91.60;;;;;;5041615;28;20533;-76
2022/04/09 06:54:05;;;;;;;16.90;7.90;;;3.60;91.30;;;;;;5040700;28;20451;-75
2022/04/09 06:56:30;;;;;;;16.73;8.50;;;3.50;91.40;;;;;;5036728;28;20478;-76
2022/04/09 06:58:56;;;;;;;12.60;7.23;;;3.60;91.70;;;;;;5047887;28;20419;-76
2022/04/09 07:01:22;;;;;;;12.10;6.30;;;3.60;91.10;;;;;;5033952;28;20178;-75
2022/04/09 07:03:47;;;;;;;16.30;6.40;;;3.50;91.00;;;;;;5032024;28;20181;-76
2022/04/09 07:06:15;;;;;;;10.27;6.87;;;3.60;91.00;;;;;;5033888;28;20374;-77
2022/04/09 07:08:42;;;;;;;12.23;6.88;;;3.60;91.10;;;;;;5039497;28;20258;-76
2022/04/09 07:11:07;;;;;;;14.95;6.93;;;3.60;90.90;;;;;;5039022;28;20185;-76
2022/04/09 07:13:33;;;;;;;13.73;7.40;;;3.70;90.80;;;;;;5042204;28;20256;-76
2022/04/09 07:15:59;;;;;;;10.47;6.77;;;3.70;91.00;;;;;;5034128;28;20483;-75
2022/04/09 07:18:25;;;;;;;10.90;6.50;;;3.80;91.10;;;;;;5032521;28;20193;-77
2022/04/09 07:20:51;;;;;;;14.03;7.70;;;3.90;90.50;;;;;;5036004;28;20177;-76
2022/04/09 07:23:16;;;;;;;14.10;7.00;;;4.00;90.30;;;;;;5033998;28;20460;-76
2022/04/09 07:25:42;;;;;;;10.77;6.50;;;4.10;90.30;;;;;;5035759;28;20201;-76
2022/04/09 07:28:09;;;;;;;16.27;6.13;;;4.20;89.90;;;;;;5037408;28;20209;-77
2022/04/09 07:30:35;;;;;;;10.13;6.10;;;4.30;89.00;;;;;;5043835;28;20432;-75
2022/04/09 07:33:00;;;;;;;9.53;6.00;;;4.30;88.10;;;;;;5040210;28;20441;-76
2022/04/09 07:35:27;;;;;;;11.67;6.63;;;4.30;87.70;;;;;;5035578;28;20282;-77
2022/04/09 07:37:55;;;;;;;12.90;6.10;;;4.40;88.00;;;;;;5035347;28;20205;-77
2022/04/09 07:40:29;;;;;;;15.70;7.07;;;4.60;87.70;;;;;;5037611;28;20423;-76
2022/04/09 07:42:57;;;;;;;11.20;6.50;;;4.50;87.00;;;;;;5032102;28;20463;-77
2022/04/09 07:45:23;;;;;;;11.77;5.90;;;4.70;86.80;;;;;;5043628;28;20447;-77
2022/04/09 07:47:57;;;;;;;13.07;6.87;;;4.90;86.60;;;;;;5046966;28;20430;-76
2022/04/09 07:50:25;;;;;;;10.40;6.40;;;4.90;85.90;;;;;;5034944;28;20444;-76
2022/04/09 07:52:51;;;;;;;11.03;5.80;;;4.90;84.90;;;;;;5032545;28;20473;-76
2022/04/09 07:55:17;;;;;;;9.07;5.30;;;5.00;85.30;;;;;;5040538;28;20474;-76
2022/04/09 07:57:47;;;;;;;12.10;5.93;;;5.10;86.00;;;;;;5034634;28;20420;-77
2022/04/09 08:00:15;;;;;;;16.93;5.90;;;5.30;85.20;;;;;;5033994;28;20423;-76
2022/04/09 08:02:40;;;;;;;12.73;6.03;;;5.40;84.00;;;;;;5031576;28;20427;-77
2022/04/09 08:05:09;;;;;;;9.47;5.37;;;5.40;83.00;;;;;;5043959;28;20446;-75
2022/04/09 08:07:35;;;;;;;10.03;4.90;;;5.50;82.50;;;;;;5039585;28;20424;-77
2022/04/09 08:10:01;;;;;;;12.00;5.03;;;5.60;82.20;;;;;;5042450;28;20446;-76
2022/04/09 08:12:26;;;;;;;11.00;5.73;;;5.40;81.80;;;;;;5041787;28;20635;-77
2022/04/09 08:14:52;;;;;;;9.43;5.10;;;5.30;82.20;;;;;;5035231;28;20316;-76
2022/04/09 08:17:20;;;;;;;9.40;5.13;;;5.20;82.80;;;;;;5031786;28;20200;-77
2022/04/09 08:19:49;;;;;;;12.90;5.63;;;5.10;83.30;;;;;;5034334;28;20189;-77
2022/04/09 08:22:16;;;;;;;17.00;5.43;;;5.20;83.70;;;;;;5038587;28;21528;-77
2022/04/09 08:24:42;;;;;;;10.07;5.00;;;5.30;83.60;;;;;;5034561;28;20444;-76
2022/04/09 08:27:10;;;;;;;8.47;4.80;;;5.40;82.20;;;;;;5040673;28;20820;-77
2022/04/09 08:29:36;;;;;;;8.53;4.60;;;5.50;83.30;;;;;;5030177;28;20585;-76
2022/04/09 08:32:04;;;;;;;14.33;5.00;;;5.40;81.90;;;;;;5035334;28;20423;-76
2022/04/09 08:34:33;;;;;;;7.17;4.00;;;5.30;81.80;;;;;;5037766;28;20844;-76
2022/04/09 08:36:59;;;;;;;8.47;4.43;;;5.40;81.10;;;;;;5035781;28;20427;-78
2022/04/09 08:39:25;;;;;;;9.60;5.27;;;5.50;81.70;;;;;;5032507;28;20423;-77
2022/04/09 08:41:53;;;;;;;7.80;4.80;;;5.60;82.40;;;;;;5039505;28;20432;-77
2022/04/09 08:44:19;;;;;;;8.13;5.07;;;5.80;82.20;;;;;;5033920;28;20420;-74
2022/04/09 08:46:47;;;;;;;11.13;4.80;;;5.80;81.10;;;;;;5037801;28;20423;-77
2022/04/09 08:49:13;;;;;;;11.97;5.40;;;5.60;79.90;;;;;;5035682;28;20783;-77
2022/04/09 08:51:39;;;;;;;11.93;4.80;;;5.50;79.90;;;;;;5036615;28;20416;-76
2022/04/09 08:54:05;;;;;;;6.43;4.40;;;5.40;79.60;;;;;;5034287;28;20416;-77
2022/04/09 08:56:34;;;;;;;11.03;5.17;;;5.60;79.90;;;;;;5033209;28;20479;-77
2022/04/09 08:59:00;;;;;;;9.60;4.97;;;5.70;80.20;;;;;;5037299;28;20424;-76
2022/04/09 09:01:27;;;;;;;10.00;5.07;;;5.70;79.30;;;;;;5030916;28;20439;-76
2022/04/09 09:03:54;;;;;;;16.43;5.43;;;5.80;79.50;;;;;;5033341;28;20424;-75
2022/04/09 09:06:30;;;;;;;8.70;5.00;;;5.60;78.40;;;;;;5043331;28;20933;-76
2022/04/09 09:09:00;;;;;;;10.13;4.90;;;5.50;79.00;;;;;;5032543;28;20431;-76
2022/04/09 09:11:28;;;;;;;10.13;4.93;;;5.70;78.90;;;;;;5036658;28;20480;-77
2022/04/09 09:13:58;;;;;;;17.23;6.00;;;5.70;78.70;;;;;;5038921;28;20420;-76
2022/04/09 09:16:32;;;;;;;7.87;5.47;;;5.80;78.40;;;;;;5032713;28;20561;-77
2022/04/09 09:19:03;;;;;;;8.77;5.10;;;5.90;77.70;;;;;;5033866;28;20513;-75
2022/04/09 09:21:30;;;;;;;9.43;5.00;;;5.80;78.30;;;;;;5040124;28;20415;-77
2022/04/09 09:24:27;;;;;;;10.77;5.13;;;5.80;77.70;;;;;;5034163;28;20420;-77
2022/04/09 09:27:00;;;;;;;10.60;4.70;;;5.90;78.40;;;;;;4988572;28;20429;-78
2022/04/09 09:29:29;;;;;;;12.00;5.40;;;6.10;78.60;;;;;;5017928;28;20427;-76
2022/04/09 09:32:02;;;;;;;7.40;4.30;;;5.90;77.40;;;;;;5015782;28;20493;-77
2022/04/09 09:34:29;;;;;;;9.40;4.50;;;6.00;77.60;;;;;;5018852;28;20429;-76
2022/04/09 09:36:55;;;;;;;7.20;4.20;;;6.00;75.40;;;;;;4996228;28;20505;-77
2022/04/09 09:39:25;;;;;;;10.13;4.43;;;6.00;75.10;;;;;;5019548;28;20426;-77
2022/04/09 09:41:54;;;;;;;10.80;3.90;;;6.10;75.80;;;;;;5002564;28;20419;-76
2022/04/09 09:44:22;;;;;;;9.07;4.17;;;6.10;75.90;;;;;;5013856;28;20962;-76
2022/04/09 09:46:49;;;;;;;8.40;4.00;;;6.30;76.80;;;;;;5000992;28;20416;-78
2022/04/09 09:49:19;;;;;;;16.33;6.40;;;6.50;75.80;;;;;;5019457;28;20520;-78
2022/04/09 09:52:05;;;;;;;9.90;3.40;;;6.50;74.50;;;;;;5003708;28;20935;-78
2022/04/09 09:54:31;;;;;;;9.83;4.10;;;6.50;73.20;;;;;;5017283;28;20927;-76
2022/04/09 09:56:57;;;;;;;7.10;4.50;;;6.60;73.50;;;;;;5016065;28;20499;-77
2022/04/09 09:59:23;;;;;;;10.77;4.47;;;6.80;72.70;;;;;;5019071;28;20665;-76
2022/04/09 10:01:51;;;;;;;9.43;4.10;;;6.80;73.00;;;;;;5027524;28;20421;-76
2022/04/09 10:04:17;;;;;;;12.57;4.50;;;6.80;73.30;;;;;;5041920;28;20424;-78
2022/04/09 10:06:43;;;;;;;13.33;4.17;;;6.70;73.70;;;;;;5041182;28;20945;-77
2022/04/09 10:09:13;;;;;;;8.53;3.80;;;6.90;72.90;;;;;;5044084;28;20177;-78
2022/04/09 10:11:42;;;;;;;8.50;4.27;;;7.10;72.00;;;;;;5035200;28;20981;-78
2022/04/09 10:14:13;;;;;;;6.47;3.70;;;7.10;71.70;;;;;;5035425;28;20477;-78
2022/04/09 10:16:43;;;;;;;8.20;3.60;;;7.20;72.10;;;;;;5033554;28;20965;-77
2022/04/09 10:19:11;;;;;;;7.67;4.07;;;7.30;71.00;;;;;;5033029;28;20408;-77
2022/04/09 10:21:41;;;;;;;7.23;3.30;;;7.30;71.30;;;;;;5040308;28;20419;-77
2022/04/09 10:24:15;;;;;;;7.53;3.90;;;7.30;70.20;;;;;;5041507;28;20415;-77
2022/04/09 10:26:41;;;;;;;8.20;3.77;;;7.00;70.70;;;;;;5034877;28;20792;-77
2022/04/09 10:29:08;;;;;;;9.17;4.80;;;6.90;70.80;;;;;;5042575;28;20438;-77
2022/04/09 10:31:39;;;;;;;5.20;3.43;;;7.00;69.80;;;;;;5035157;28;20478;-78
2022/04/09 10:34:07;;;;;;;6.90;3.50;;;7.20;69.40;;;;;;5036222;28;20761;-77
2022/04/09 10:36:45;;;;;;;5.63;3.37;;;7.20;68.60;;;;;;5034841;28;20509;-78
2022/04/09 10:39:36;;;;;;;11.00;3.60;;;7.30;68.50;;;;;;5035278;28;20432;-78
2022/04/09 10:42:03;;;;;;;6.57;3.43;;;7.60;68.90;;;;;;5041912;28;20450;-77
2022/04/09 10:44:43;;;;;;;7.40;3.43;;;7.50;68.20;;;;;;5033398;28;20415;-78
2022/04/09 10:47:13;;;;;;;11.53;4.10;;;7.70;68.20;;;;;;5036946;28;20472;-77
2022/04/09 10:49:38;;;;;;;5.73;3.60;;;7.40;67.20;;;;;;5037340;28;21112;-77
2022/04/09 10:52:08;;;;;;;9.37;4.00;;;7.50;66.70;;;;;;5036966;28;20419;-77
2022/04/09 10:54:34;;;;;;;8.20;3.27;;;8.00;65.80;;;;;;5033725;28;20451;-78
2022/04/09 10:57:40;;;;;;;6.10;3.20;;;8.20;64.50;;;;;;5037578;28;20420;-78
2022/04/09 11:00:07;;;;;;;5.20;2.97;;;8.50;63.50;;;;;;5007565;28;20496;-78
2022/04/09 11:02:33;;;;;;;11.47;3.83;;;8.20;63.50;;;;;;5012701;28;20419;-78
2022/04/09 11:05:20;;;;;;;12.33;4.07;;;8.10;64.80;;;;;;5015028;28;20444;-79
2022/04/09 11:08:14;;;;;;;9.60;4.20;;;7.80;66.00;;;;;;5010503;28;20936;-78
2022/04/09 11:10:42;;;;;;;6.57;3.53;;;7.90;66.30;;;;;;5010929;28;20466;-79
2022/04/09 11:13:12;;;;;;;9.63;3.43;;;7.70;64.80;;;;;;5021311;28;20435;-79
2022/04/09 11:15:40;;;;;;;11.60;4.67;;;7.70;66.30;;;;;;5014246;28;20476;-79
2022/04/09 11:18:06;;;;;;;12.77;4.60;;;7.60;67.20;;;;;;5013817;28;20425;-78
2022/04/09 11:20:34;;;;;;;6.57;3.40;;;7.80;65.70;;;;;;5010640;28;20814;-79
2022/04/09 11:23:19;;;;;;;4.53;3.57;;;8.10;63.50;;;;;;4996351;28;20436;-79
2022/04/09 11:25:46;;;;;;;7.33;3.27;;;8.50;63.80;;;;;;5010500;28;20452;-81
2022/04/09 11:28:18;;;;;;;4.73;3.47;;;8.70;60.70;;;;;;5009909;28;20425;-80
2022/04/09 11:31:00;;;;;;;11.53;3.90;;;8.60;61.30;;;;;;5017337;28;20436;-80
2022/04/09 11:33:27;;;;;;;5.57;3.40;;;8.80;62.30;;;;;;4999347;28;20437;-79
2022/04/09 11:35:53;;;;;;;10.80;3.90;;;8.90;59.20;;;;;;5012114;28;20870;-79
2022/04/09 11:38:22;;;;;;;3.90;3.30;;;8.80;58.10;;;;;;5039869;28;20416;-79
2022/04/09 11:40:48;;;;;;;11.50;4.67;;;8.70;57.20;;;;;;5045427;28;20420;-80
2022/04/09 11:43:18;;;;;;;5.27;3.00;;;8.80;57.00;;;;;;5042697;28;20428;-79
2022/04/09 11:45:45;;;;;;;9.23;3.17;;;8.70;57.60;;;;;;5039753;28;20207;-78
2022/04/09 11:48:16;;;;;;;6.10;3.13;;;8.80;57.20;;;;;;5039086;28;20427;-80
2022/04/09 11:50:42;;;;;;;6.63;2.97;;;8.40;58.00;;;;;;5041788;28;20448;-80
2022/04/09 11:53:13;;;;;;;7.40;3.50;;;8.60;59.60;;;;;;5034587;28;20436;-79
2022/04/09 11:55:40;;;;;;;4.97;3.00;;;9.00;58.90;;;;;;5043447;28;20522;-79
2022/04/09 11:58:06;;;;;;;7.00;3.70;;;9.40;57.00;;;;;;5035306;28;20471;-80
2022/04/09 12:00:36;;;;;;;6.23;3.33;;;9.20;56.40;;;;;;5041121;28;20408;-79
2022/04/09 12:03:06;;;;;;;11.53;4.43;;;8.90;57.20;;;;;;5035298;28;20447;-79
2022/04/09 12:05:46;;;;;;;6.17;3.50;;;9.00;57.70;;;;;;5034323;28;20812;-79
2022/04/09 12:08:15;;;;;;;4.33;3.20;;;9.20;57.00;;;;;;5029667;28;20430;-80
2022/04/09 12:10:55;;;;;;;7.60;3.50;;;9.10;56.80;;;;;;5033528;28;20416;-80
2022/04/09 12:13:27;;;;;;;10.17;4.43;;;9.10;58.00;;;;;;5041602;28;20422;-79
2022/04/09 12:16:08;;;;;;;5.80;3.73;;;9.10;58.80;;;;;;5026421;28;20483;-81
2022/04/09 12:18:36;;;;;;;12.70;5.13;;;8.80;57.70;;;;;;5035198;28;20936;-80
2022/04/09 12:21:25;;;;;;;6.77;3.40;;;9.00;58.10;;;;;;5026857;28;20808;-80
2022/04/09 12:24:00;;;;;;;9.17;3.80;;;9.00;57.70;;;;;;5026756;28;20474;-80
2022/04/09 12:26:26;;;;;;;8.90;4.57;;;9.00;58.00;;;;;;5030242;28;20804;-81
2022/04/09 12:29:13;;;;;;;6.57;3.77;;;9.10;58.40;;;;;;5027809;28;21094;-80
2022/04/09 12:31:43;;;;;;;7.80;3.70;;;9.60;57.30;;;;;;5034202;28;21087;-79
2022/04/09 12:34:10;;;;;;;7.67;2.97;;;9.50;55.20;;;;;;5031903;28;20443;-78
2022/04/09 12:36:38;;;;;;;7.57;3.87;;;9.90;56.00;;;;;;5033268;28;20456;-80
2022/04/09 12:39:26;;;;;;;7.67;3.40;;;9.50;55.60;;;;;;5035403;28;20422;-80
2022/04/09 12:41:52;;;;;;;3.97;3.13;;;9.30;56.50;;;;;;5033127;28;20911;-77
2022/04/09 12:44:44;;;;;;;4.67;2.77;;;9.20;56.10;;;;;;5042997;28;20909;-80
2022/04/09 12:47:10;;;;;;;5.80;3.20;;;9.00;56.80;;;;;;5037039;28;20432;-79
2022/04/09 12:49:40;;;;;;;8.03;2.97;;;9.20;56.40;;;;;;5034351;28;20446;-78
2022/04/09 12:52:09;;;;;;;4.17;2.70;;;9.30;53.00;;;;;;5039601;28;20185;-81
2022/04/09 12:54:36;;;;;;;6.47;3.30;;;9.30;53.60;;;;;;5027984;28;20454;-79
2022/04/09 12:57:06;;;;;;;6.50;3.20;;;9.00;54.80;;;;;;5039192;28;20427;-79